PWSweather.com
Personal Weather Stations
Station Observations
KMNHANSK2
Andys Live Weather Stations, Hanska, MN 56041

Andys Live Weather StationsHanska, MN 56041

Lat: 44.170119, Lon: -94.381619

Elevation: 1004

Station Type: Davis Instruments Vantage Pro2 Plus

http://www.madeliasliveweather.com/thompsonfarms/

Latest ConditionsUpdated 5:27:01 AM CDT Friday, Oct 31, 2014
Currently Today's Max Today's Min Today's Average
Temperature 25.6°F-3.6°C 33.0°F0.6°C 25.6°F-3.6°C 29.5°F-1.4°C
Dew Point 19.7°F-6.8°C 22.5°F-5.3°C 19.4°F-7.0°C 20.6°F-6.3°C
Winds 11.0 mph NW17.7 kmh NW 23.0 mph NW37.0 kmh NW - 13.7 mph 22.0 kmh
Wind Gusts 14.0 mph22.5 kmh 29.0 mph46.7 kmh - -
Humidity 78% 78% 65% 69%
Pressure 30.53 in1033.9 mb 30.53 in1033.9 mb 30.41 in1029.8 mb -
Hour Temp Dew Point Humidity Winds Wind Gusts Pressure Precip Precip Rate Daily Precip Total
05:27 AM 25.6°F-3.6°C 19.7°F-6.8°C 78% 11.0 mph NW17.7 kmh NW 14.0 mph22.5 kmh 30.53 in1033.9 mb 0.00 in0.0 mm 0.00 in/hr0.0 mm/hr 0.00 in0.0 mm
05:26 AM 25.6°F-3.6°C 19.7°F-6.8°C 78% 11.0 mph NW17.7 kmh NW 14.0 mph22.5 kmh 30.53 in1033.9 mb 0.00 in0.0 mm 0.00 in/hr0.0 mm/hr 0.00 in0.0 mm
05:25 AM 25.6°F-3.6°C 19.7°F-6.8°C 78% 12.0 mph N19.3 kmh N 14.0 mph22.5 kmh 30.53 in1033.9 mb 0.00 in0.0 mm 0.00 in/hr0.0 mm/hr 0.00 in0.0 mm
05:24 AM 25.6°F-3.6°C 19.7°F-6.8°C 78% 9.0 mph NW14.5 kmh NW 14.0 mph22.5 kmh 30.53 in1033.9 mb 0.00 in0.0 mm 0.00 in/hr0.0 mm/hr 0.00 in0.0 mm
05:23 AM 25.6°F-3.6°C 19.4°F-7.0°C 77% 11.0 mph NW17.7 kmh NW 14.0 mph22.5 kmh 30.53 in1033.9 mb 0.00 in0.0 mm 0.00 in/hr0.0 mm/hr 0.00 in0.0 mm
05:22 AM 25.7°F-3.5°C 19.5°F-6.9°C 77% 8.0 mph NW12.9 kmh NW 14.0 mph22.5 kmh 30.53 in1033.9 mb 0.00 in0.0 mm 0.00 in/hr0.0 mm/hr 0.00 in0.0 mm
05:21 AM 25.7°F-3.5°C 19.5°F-6.9°C 77% 11.0 mph NW17.7 kmh NW 14.0 mph22.5 kmh 30.53 in1033.9 mb 0.00 in0.0 mm 0.00 in/hr0.0 mm/hr 0.00 in0.0 mm
05:20 AM 25.8°F-3.4°C 19.6°F-6.9°C 77% 10.0 mph NNW16.1 kmh NNW 14.0 mph22.5 kmh 30.53 in1033.9 mb 0.00 in0.0 mm 0.00 in/hr0.0 mm/hr 0.00 in0.0 mm
05:19 AM 25.8°F-3.4°C 19.6°F-6.9°C 77% 12.0 mph NW19.3 kmh NW 14.0 mph22.5 kmh 30.53 in1033.9 mb 0.00 in0.0 mm 0.00 in/hr0.0 mm/hr 0.00 in0.0 mm
05:18 AM 25.9°F-3.4°C 19.7°F-6.8°C 77% 11.0 mph NW17.7 kmh NW 14.0 mph22.5 kmh 30.53 in1033.9 mb 0.00 in0.0 mm 0.00 in/hr0.0 mm/hr 0.00 in0.0 mm
05:17 AM 26.0°F-3.3°C 19.8°F-6.8°C 77% 12.0 mph NW19.3 kmh NW 14.0 mph22.5 kmh 30.53 in1033.9 mb 0.00 in0.0 mm 0.00 in/hr0.0 mm/hr 0.00 in0.0 mm
05:16 AM 26.0°F-3.3°C 19.8°F-6.8°C 77% 11.0 mph NW17.7 kmh NW 14.0 mph22.5 kmh 30.53 in1033.9 mb 0.00 in0.0 mm 0.00 in/hr0.0 mm/hr 0.00 in0.0 mm
05:15 AM 26.1°F-3.3°C 19.9°F-6.7°C 77% 10.0 mph NW16.1 kmh NW 14.0 mph22.5 kmh 30.53 in1033.9 mb 0.00 in0.0 mm 0.00 in/hr0.0 mm/hr 0.00 in0.0 mm
05:14 AM 26.1°F-3.3°C 19.6°F-6.9°C 76% 10.0 mph NW16.1 kmh NW 14.0 mph22.5 kmh 30.53 in1033.9 mb 0.00 in0.0 mm 0.00 in/hr0.0 mm/hr 0.00 in0.0 mm
05:13 AM 26.2°F-3.2°C 19.7°F-6.8°C 76% 9.0 mph NW14.5 kmh NW 14.0 mph22.5 kmh 30.53 in1033.9 mb 0.00 in0.0 mm 0.00 in/hr0.0 mm/hr 0.00 in0.0 mm
05:12 AM 26.2°F-3.2°C 19.7°F-6.8°C 76% 10.0 mph NNW16.1 kmh NNW 14.0 mph22.5 kmh 30.53 in1033.9 mb 0.00 in0.0 mm 0.00 in/hr0.0 mm/hr 0.00 in0.0 mm
05:11 AM 26.3°F-3.2°C 19.8°F-6.8°C 76% 10.0 mph NW16.1 kmh NW 14.0 mph22.5 kmh 30.53 in1033.9 mb 0.00 in0.0 mm 0.00 in/hr0.0 mm/hr 0.00 in0.0 mm
05:10 AM 26.3°F-3.2°C 19.8°F-6.8°C 76% 12.0 mph NNW19.3 kmh NNW 14.0 mph22.5 kmh 30.53 in1033.9 mb 0.00 in0.0 mm 0.00 in/hr0.0 mm/hr 0.00 in0.0 mm
05:09 AM 26.4°F-3.1°C 19.9°F-6.7°C 76% 11.0 mph NW17.7 kmh NW 14.0 mph22.5 kmh 30.53 in1033.9 mb 0.00 in0.0 mm 0.00 in/hr0.0 mm/hr 0.00 in0.0 mm
05:08 AM 26.4°F-3.1°C 19.9°F-6.7°C 76% 13.0 mph NW20.9 kmh NW 14.0 mph22.5 kmh 30.52 in1033.5 mb 0.00 in0.0 mm 0.00 in/hr0.0 mm/hr 0.00 in0.0 mm
05:07 AM 26.4°F-3.1°C 19.6°F-6.9°C 75% 11.0 mph NW17.7 kmh NW 14.0 mph22.5 kmh 30.52 in1033.5 mb 0.00 in0.0 mm 0.00 in/hr0.0 mm/hr 0.00 in0.0 mm
05:06 AM 26.5°F-3.1°C 19.7°F-6.8°C 75% 10.0 mph NW16.1 kmh NW 14.0 mph22.5 kmh 30.52 in1033.5 mb 0.00 in0.0 mm 0.00 in/hr0.0 mm/hr 0.00 in0.0 mm
05:05 AM 26.5°F-3.1°C 19.7°F-6.8°C 75% 9.0 mph NNW14.5 kmh NNW 14.0 mph22.5 kmh 30.53 in1033.9 mb 0.00 in0.0 mm 0.00 in/hr0.0 mm/hr 0.00 in0.0 mm
05:04 AM 26.5°F-3.1°C 19.7°F-6.8°C 75% 10.0 mph NW16.1 kmh NW 14.0 mph22.5 kmh 30.52 in1033.5 mb 0.00 in0.0 mm 0.00 in/hr0.0 mm/hr 0.00 in0.0 mm
05:03 AM 26.6°F-3.0°C 19.8°F-6.8°C 75% 9.0 mph NNW14.5 kmh NNW 14.0 mph22.5 kmh 30.52 in1033.5 mb 0.00 in0.0 mm 0.00 in/hr0.0 mm/hr 0.00 in0.0 mm
05:02 AM 26.6°F-3.0°C 19.8°F-6.8°C 75% 14.0 mph NNW22.5 kmh NNW 14.0 mph22.5 kmh 30.52 in1033.5 mb 0.00 in0.0 mm 0.00 in/hr0.0 mm/hr 0.00 in0.0 mm
05:01 AM 26.6°F-3.0°C 19.8°F-6.8°C 75% 11.0 mph NW17.7 kmh NW 17.0 mph27.4 kmh 30.52 in1033.5 mb 0.00 in0.0 mm 0.00 in/hr0.0 mm/hr 0.00 in0.0 mm
05:00 AM 26.7°F-2.9°C 19.9°F-6.7°C 75% 10.0 mph NW16.1 kmh NW 17.0 mph27.4 kmh 30.52 in1033.5 mb 0.00 in0.0 mm 0.00 in/hr0.0 mm/hr 0.00 in0.0 mm
04:59 AM 26.7°F-2.9°C 19.5°F-6.9°C 74% 12.0 mph NNW19.3 kmh NNW 17.0 mph27.4 kmh 30.52 in1033.5 mb 0.00 in0.0 mm 0.00 in/hr0.0 mm/hr 0.00 in0.0 mm
04:58 AM 26.7°F-2.9°C 19.9°F-6.7°C 75% 8.0 mph NNW12.9 kmh NNW 17.0 mph27.4 kmh 30.51 in1033.2 mb 0.00 in0.0 mm 0.00 in/hr0.0 mm/hr 0.00 in0.0 mm
04:57 AM 26.8°F-2.9°C 19.6°F-6.9°C 74% 13.0 mph NNW20.9 kmh NNW 17.0 mph27.4 kmh 30.51 in1033.2 mb 0.00 in0.0 mm 0.00 in/hr0.0 mm/hr 0.00 in0.0 mm
04:56 AM 26.8°F-2.9°C 19.6°F-6.9°C 74% 10.0 mph NW16.1 kmh NW 17.0 mph27.4 kmh 30.51 in1033.2 mb 0.00 in0.0 mm 0.00 in/hr0.0 mm/hr 0.00 in0.0 mm
04:55 AM 26.8°F-2.9°C 19.6°F-6.9°C 74% 14.0 mph NNW22.5 kmh NNW 17.0 mph27.4 kmh 30.51 in1033.2 mb 0.00 in0.0 mm 0.00 in/hr0.0 mm/hr 0.00 in0.0 mm
04:54 AM 26.8°F-2.9°C 19.6°F-6.9°C 74% 10.0 mph NNW16.1 kmh NNW 17.0 mph27.4 kmh 30.51 in1033.2 mb 0.00 in0.0 mm 0.00 in/hr0.0 mm/hr 0.00 in0.0 mm
04:53 AM 26.8°F-2.9°C 19.6°F-6.9°C 74% 12.0 mph NNW19.3 kmh NNW 16.0 mph25.7 kmh 30.51 in1033.2 mb 0.00 in0.0 mm 0.00 in/hr0.0 mm/hr 0.00 in0.0 mm
04:52 AM 26.9°F-2.8°C 19.7°F-6.8°C 74% 9.0 mph N14.5 kmh N 16.0 mph25.7 kmh 30.51 in1033.2 mb 0.00 in0.0 mm 0.00 in/hr0.0 mm/hr 0.00 in0.0 mm
04:51 AM 26.9°F-2.8°C 19.7°F-6.8°C 74% 9.0 mph NNW14.5 kmh NNW 16.0 mph25.7 kmh 30.51 in1033.2 mb 0.00 in0.0 mm 0.00 in/hr0.0 mm/hr 0.00 in0.0 mm
04:50 AM 26.9°F-2.8°C 19.7°F-6.8°C 74% 7.0 mph NNW11.3 kmh NNW 16.0 mph25.7 kmh 30.51 in1033.2 mb 0.00 in0.0 mm 0.00 in/hr0.0 mm/hr 0.00 in0.0 mm
04:49 AM 26.9°F-2.8°C 19.7°F-6.8°C 74% 12.0 mph NNW19.3 kmh NNW 16.0 mph25.7 kmh 30.51 in1033.2 mb 0.00 in0.0 mm 0.00 in/hr0.0 mm/hr 0.00 in0.0 mm
04:48 AM 27.0°F-2.8°C 19.8°F-6.8°C 74% 11.0 mph NW17.7 kmh NW 16.0 mph25.7 kmh 30.51 in1033.2 mb 0.00 in0.0 mm 0.00 in/hr0.0 mm/hr 0.00 in0.0 mm
04:47 AM 27.0°F-2.8°C 19.8°F-6.8°C 74% 13.0 mph NNW20.9 kmh NNW 16.0 mph25.7 kmh 30.51 in1033.2 mb 0.00 in0.0 mm 0.00 in/hr0.0 mm/hr 0.00 in0.0 mm
04:46 AM 27.0°F-2.8°C 19.8°F-6.8°C 74% 12.0 mph NW19.3 kmh NW 16.0 mph25.7 kmh 30.51 in1033.2 mb 0.00 in0.0 mm 0.00 in/hr0.0 mm/hr 0.00 in0.0 mm
04:45 AM 27.0°F-2.8°C 19.5°F-6.9°C 73% 12.0 mph NNW19.3 kmh NNW 16.0 mph25.7 kmh 30.51 in1033.2 mb 0.00 in0.0 mm 0.00 in/hr0.0 mm/hr 0.00 in0.0 mm
04:44 AM 27.0°F-2.8°C 19.5°F-6.9°C 73% 13.0 mph NW20.9 kmh NW 16.0 mph25.7 kmh 30.51 in1033.2 mb 0.00 in0.0 mm 0.00 in/hr0.0 mm/hr 0.00 in0.0 mm
04:43 AM 27.0°F-2.8°C 19.8°F-6.8°C 74% 12.0 mph NNW19.3 kmh NNW 16.0 mph25.7 kmh 30.51 in1033.2 mb 0.00 in0.0 mm 0.00 in/hr0.0 mm/hr 0.00 in0.0 mm
04:42 AM 27.0°F-2.8°C 19.8°F-6.8°C 74% 13.0 mph NW20.9 kmh NW 15.0 mph24.1 kmh 30.51 in1033.2 mb 0.00 in0.0 mm 0.00 in/hr0.0 mm/hr 0.00 in0.0 mm
04:41 AM 27.0°F-2.8°C 19.5°F-6.9°C 73% 11.0 mph NNW17.7 kmh NNW 15.0 mph24.1 kmh 30.51 in1033.2 mb 0.00 in0.0 mm 0.00 in/hr0.0 mm/hr 0.00 in0.0 mm
04:40 AM 27.0°F-2.8°C 19.5°F-6.9°C 73% 12.0 mph NW19.3 kmh NW 15.0 mph24.1 kmh 30.51 in1033.2 mb 0.00 in0.0 mm 0.00 in/hr0.0 mm/hr 0.00 in0.0 mm
04:39 AM 27.0°F-2.8°C 19.5°F-6.9°C 73% 11.0 mph NNW17.7 kmh NNW 15.0 mph24.1 kmh 30.51 in1033.2 mb 0.00 in0.0 mm 0.00 in/hr0.0 mm/hr 0.00 in0.0 mm
04:38 AM 27.0°F-2.8°C 19.5°F-6.9°C 73% 11.0 mph NNW17.7 kmh NNW 15.0 mph24.1 kmh 30.51 in1033.2 mb 0.00 in0.0 mm 0.00 in/hr0.0 mm/hr 0.00 in0.0 mm
04:37 AM 27.0°F-2.8°C 19.5°F-6.9°C 73% 11.0 mph NW17.7 kmh NW 15.0 mph24.1 kmh 30.51 in1033.2 mb 0.00 in0.0 mm 0.00 in/hr0.0 mm/hr 0.00 in0.0 mm
04:36 AM 27.1°F-2.7°C 19.6°F-6.9°C 73% 10.0 mph NW16.1 kmh NW 15.0 mph24.1 kmh 30.51 in1033.2 mb 0.00 in0.0 mm 0.00 in/hr0.0 mm/hr 0.00 in0.0 mm
04:35 AM 27.1°F-2.7°C 19.6°F-6.9°C 73% 11.0 mph NW17.7 kmh NW 15.0 mph24.1 kmh 30.51 in1033.2 mb 0.00 in0.0 mm 0.00 in/hr0.0 mm/hr 0.00 in0.0 mm
04:34 AM 27.1°F-2.7°C 19.6°F-6.9°C 73% 10.0 mph NW16.1 kmh NW 15.0 mph24.1 kmh 30.51 in1033.2 mb 0.00 in0.0 mm 0.00 in/hr0.0 mm/hr 0.00 in0.0 mm
04:33 AM 27.2°F-2.7°C 19.7°F-6.8°C 73% 11.0 mph NW17.7 kmh NW 15.0 mph24.1 kmh 30.51 in1033.2 mb 0.00 in0.0 mm 0.00 in/hr0.0 mm/hr 0.00 in0.0 mm
04:32 AM 27.2°F-2.7°C 19.7°F-6.8°C 73% 14.0 mph NNW22.5 kmh NNW 14.0 mph22.5 kmh 30.51 in1033.2 mb 0.00 in0.0 mm 0.00 in/hr0.0 mm/hr 0.00 in0.0 mm
04:31 AM 27.3°F-2.6°C 19.8°F-6.8°C 73% 9.0 mph NNW14.5 kmh NNW 18.0 mph29.0 kmh 30.50 in1032.8 mb 0.00 in0.0 mm 0.00 in/hr0.0 mm/hr 0.00 in0.0 mm
04:30 AM 27.3°F-2.6°C 19.5°F-6.9°C 72% 12.0 mph NW19.3 kmh NW 18.0 mph29.0 kmh 30.51 in1033.2 mb 0.00 in0.0 mm 0.00 in/hr0.0 mm/hr 0.00 in0.0 mm
04:29 AM 27.4°F-2.6°C 19.6°F-6.9°C 72% 10.0 mph NW16.1 kmh NW 18.0 mph29.0 kmh 30.51 in1033.2 mb 0.00 in0.0 mm 0.00 in/hr0.0 mm/hr 0.00 in0.0 mm
04:28 AM 27.5°F-2.5°C 19.7°F-6.8°C 72% 13.0 mph NNW20.9 kmh NNW 18.0 mph29.0 kmh 30.51 in1033.2 mb 0.00 in0.0 mm 0.00 in/hr0.0 mm/hr 0.00 in0.0 mm
04:27 AM 27.5°F-2.5°C 19.7°F-6.8°C 72% 10.0 mph NW16.1 kmh NW 18.0 mph29.0 kmh 30.51 in1033.2 mb 0.00 in0.0 mm 0.00 in/hr0.0 mm/hr 0.00 in0.0 mm
04:26 AM 27.5°F-2.5°C 19.7°F-6.8°C 72% 11.0 mph NNW17.7 kmh NNW 18.0 mph29.0 kmh 30.51 in1033.2 mb 0.00 in0.0 mm 0.00 in/hr0.0 mm/hr 0.00 in0.0 mm
04:25 AM 27.5°F-2.5°C 19.7°F-6.8°C 72% 11.0 mph NNW17.7 kmh NNW 18.0 mph29.0 kmh 30.51 in1033.2 mb 0.00 in0.0 mm 0.00 in/hr0.0 mm/hr 0.00 in0.0 mm
04:24 AM 27.5°F-2.5°C 19.7°F-6.8°C 72% 9.0 mph NW14.5 kmh NW 18.0 mph29.0 kmh 30.51 in1033.2 mb 0.00 in0.0 mm 0.00 in/hr0.0 mm/hr 0.00 in0.0 mm
04:23 AM 27.5°F-2.5°C 19.7°F-6.8°C 72% 13.0 mph NNW20.9 kmh NNW 18.0 mph29.0 kmh 30.51 in1033.2 mb 0.00 in0.0 mm 0.00 in/hr0.0 mm/hr 0.00 in0.0 mm
04:22 AM 27.5°F-2.5°C 19.7°F-6.8°C 72% 13.0 mph NNW20.9 kmh NNW 18.0 mph29.0 kmh 30.50 in1032.8 mb 0.00 in0.0 mm 0.00 in/hr0.0 mm/hr 0.00 in0.0 mm
04:21 AM 27.5°F-2.5°C 19.7°F-6.8°C 72% 11.0 mph NW17.7 kmh NW 18.0 mph29.0 kmh 30.50 in1032.8 mb 0.00 in0.0 mm 0.00 in/hr0.0 mm/hr 0.00 in0.0 mm
04:20 AM 27.5°F-2.5°C 19.7°F-6.8°C 72% 13.0 mph NNW20.9 kmh NNW 18.0 mph29.0 kmh 30.50 in1032.8 mb 0.00 in0.0 mm 0.00 in/hr0.0 mm/hr 0.00 in0.0 mm
04:19 AM 27.5°F-2.5°C 19.7°F-6.8°C 72% 14.0 mph NNW22.5 kmh NNW 18.0 mph29.0 kmh 30.50 in1032.8 mb 0.00 in0.0 mm 0.00 in/hr0.0 mm/hr 0.00 in0.0 mm
04:18 AM 27.6°F-2.4°C 19.8°F-6.8°C 72% 12.0 mph NNW19.3 kmh NNW 18.0 mph29.0 kmh 30.50 in1032.8 mb 0.00 in0.0 mm 0.00 in/hr0.0 mm/hr 0.00 in0.0 mm
04:17 AM 27.6°F-2.4°C 19.8°F-6.8°C 72% 12.0 mph NNW19.3 kmh NNW 18.0 mph29.0 kmh 30.50 in1032.8 mb 0.00 in0.0 mm 0.00 in/hr0.0 mm/hr 0.00 in0.0 mm
04:16 AM 27.7°F-2.4°C 19.9°F-6.7°C 72% 13.0 mph NW20.9 kmh NW 18.0 mph29.0 kmh 30.50 in1032.8 mb 0.00 in0.0 mm 0.00 in/hr0.0 mm/hr 0.00 in0.0 mm
04:15 AM 27.8°F-2.3°C 19.6°F-6.9°C 71% 10.0 mph NW16.1 kmh NW 18.0 mph29.0 kmh 30.50 in1032.8 mb 0.00 in0.0 mm 0.00 in/hr0.0 mm/hr 0.00 in0.0 mm
04:14 AM 27.8°F-2.3°C 19.6°F-6.9°C 71% 13.0 mph NW20.9 kmh NW 18.0 mph29.0 kmh 30.50 in1032.8 mb 0.00 in0.0 mm 0.00 in/hr0.0 mm/hr 0.00 in0.0 mm
04:13 AM 27.9°F-2.3°C 19.7°F-6.8°C 71% 14.0 mph NW22.5 kmh NW 16.0 mph25.7 kmh 30.50 in1032.8 mb 0.00 in0.0 mm 0.00 in/hr0.0 mm/hr 0.00 in0.0 mm
04:12 AM 27.9°F-2.3°C 19.7°F-6.8°C 71% 12.0 mph NW19.3 kmh NW 16.0 mph25.7 kmh 30.50 in1032.8 mb 0.00 in0.0 mm 0.00 in/hr0.0 mm/hr 0.00 in0.0 mm
04:11 AM 27.9°F-2.3°C 19.7°F-6.8°C 71% 12.0 mph NW19.3 kmh NW 16.0 mph25.7 kmh 30.50 in1032.8 mb 0.00 in0.0 mm 0.00 in/hr0.0 mm/hr 0.00 in0.0 mm
04:10 AM 28.0°F-2.2°C 19.8°F-6.8°C 71% 13.0 mph NNW20.9 kmh NNW 16.0 mph25.7 kmh 30.50 in1032.8 mb 0.00 in0.0 mm 0.00 in/hr0.0 mm/hr 0.00 in0.0 mm
04:09 AM 28.0°F-2.2°C 19.5°F-6.9°C 70% 10.0 mph NW16.1 kmh NW 16.0 mph25.7 kmh 30.50 in1032.8 mb 0.00 in0.0 mm 0.00 in/hr0.0 mm/hr 0.00 in0.0 mm
04:08 AM 28.1°F-2.2°C 19.6°F-6.9°C 70% 13.0 mph NW20.9 kmh NW 16.0 mph25.7 kmh 30.50 in1032.8 mb 0.00 in0.0 mm 0.00 in/hr0.0 mm/hr 0.00 in0.0 mm
04:07 AM 28.1°F-2.2°C 19.6°F-6.9°C 70% 16.0 mph NW25.7 kmh NW 16.0 mph25.7 kmh 30.50 in1032.8 mb 0.00 in0.0 mm 0.00 in/hr0.0 mm/hr 0.00 in0.0 mm
04:06 AM 28.1°F-2.2°C 19.6°F-6.9°C 70% 10.0 mph NNW16.1 kmh NNW 16.0 mph25.7 kmh 30.50 in1032.8 mb 0.00 in0.0 mm 0.00 in/hr0.0 mm/hr 0.00 in0.0 mm
04:05 AM 28.1°F-2.2°C 19.6°F-6.9°C 70% 11.0 mph N17.7 kmh N 16.0 mph25.7 kmh 30.50 in1032.8 mb 0.00 in0.0 mm 0.00 in/hr0.0 mm/hr 0.00 in0.0 mm
04:04 AM 28.2°F-2.1°C 19.7°F-6.8°C 70% 13.0 mph N20.9 kmh N 16.0 mph25.7 kmh 30.50 in1032.8 mb 0.00 in0.0 mm 0.00 in/hr0.0 mm/hr 0.00 in0.0 mm
04:03 AM 28.2°F-2.1°C 19.7°F-6.8°C 70% 14.0 mph NW22.5 kmh NW 16.0 mph25.7 kmh 30.50 in1032.8 mb 0.00 in0.0 mm 0.00 in/hr0.0 mm/hr 0.00 in0.0 mm
04:02 AM 28.2°F-2.1°C 19.7°F-6.8°C 70% 13.0 mph NNW20.9 kmh NNW 16.0 mph25.7 kmh 30.50 in1032.8 mb 0.00 in0.0 mm 0.00 in/hr0.0 mm/hr 0.00 in0.0 mm
04:01 AM 28.3°F-2.1°C 19.8°F-6.8°C 70% 11.0 mph NW17.7 kmh NW 20.0 mph32.2 kmh 30.50 in1032.8 mb 0.00 in0.0 mm 0.00 in/hr0.0 mm/hr 0.00 in0.0 mm
04:00 AM 28.3°F-2.1°C 19.8°F-6.8°C 70% 10.0 mph NW16.1 kmh NW 20.0 mph32.2 kmh 30.50 in1032.8 mb 0.00 in0.0 mm 0.00 in/hr0.0 mm/hr 0.00 in0.0 mm
03:59 AM 28.4°F-2.0°C 19.9°F-6.7°C 70% 12.0 mph NW19.3 kmh NW 20.0 mph32.2 kmh 30.50 in1032.8 mb 0.00 in0.0 mm 0.00 in/hr0.0 mm/hr 0.00 in0.0 mm
03:58 AM 28.4°F-2.0°C 19.9°F-6.7°C 70% 10.0 mph NNW16.1 kmh NNW 20.0 mph32.2 kmh 30.50 in1032.8 mb 0.00 in0.0 mm 0.00 in/hr0.0 mm/hr 0.00 in0.0 mm
03:57 AM 28.4°F-2.0°C 19.9°F-6.7°C 70% 13.0 mph NNW20.9 kmh NNW 20.0 mph32.2 kmh 30.50 in1032.8 mb 0.00 in0.0 mm 0.00 in/hr0.0 mm/hr 0.00 in0.0 mm
03:56 AM 28.4°F-2.0°C 19.9°F-6.7°C 70% 14.0 mph NNW22.5 kmh NNW 20.0 mph32.2 kmh 30.50 in1032.8 mb 0.00 in0.0 mm 0.00 in/hr0.0 mm/hr 0.00 in0.0 mm
03:55 AM 28.5°F-1.9°C 20.0°F-6.7°C 70% 11.0 mph NNW17.7 kmh NNW 20.0 mph32.2 kmh 30.50 in1032.8 mb 0.00 in0.0 mm 0.00 in/hr0.0 mm/hr 0.00 in0.0 mm
03:54 AM 28.5°F-1.9°C 19.6°F-6.9°C 69% 11.0 mph NNW17.7 kmh NNW 20.0 mph32.2 kmh 30.50 in1032.8 mb 0.00 in0.0 mm 0.00 in/hr0.0 mm/hr 0.00 in0.0 mm
03:53 AM 28.5°F-1.9°C 19.6°F-6.9°C 69% 16.0 mph NNW25.7 kmh NNW 20.0 mph32.2 kmh 30.50 in1032.8 mb 0.00 in0.0 mm 0.00 in/hr0.0 mm/hr 0.00 in0.0 mm
03:52 AM 28.5°F-1.9°C 19.6°F-6.9°C 69% 14.0 mph NNW22.5 kmh NNW 20.0 mph32.2 kmh 30.50 in1032.8 mb 0.00 in0.0 mm 0.00 in/hr0.0 mm/hr 0.00 in0.0 mm
03:51 AM 28.6°F-1.9°C 19.7°F-6.8°C 69% 14.0 mph NNW22.5 kmh NNW 20.0 mph32.2 kmh 30.50 in1032.8 mb 0.00 in0.0 mm 0.00 in/hr0.0 mm/hr 0.00 in0.0 mm
03:50 AM 28.6°F-1.9°C 19.7°F-6.8°C 69% 13.0 mph NW20.9 kmh NW 20.0 mph32.2 kmh 30.50 in1032.8 mb 0.00 in0.0 mm 0.00 in/hr0.0 mm/hr 0.00 in0.0 mm
03:49 AM 28.6°F-1.9°C 19.7°F-6.8°C 69% 15.0 mph NNW24.1 kmh NNW 20.0 mph32.2 kmh 30.50 in1032.8 mb 0.00 in0.0 mm 0.00 in/hr0.0 mm/hr 0.00 in0.0 mm
03:48 AM 28.6°F-1.9°C 19.7°F-6.8°C 69% 13.0 mph NNW20.9 kmh NNW 20.0 mph32.2 kmh 30.50 in1032.8 mb 0.00 in0.0 mm 0.00 in/hr0.0 mm/hr 0.00 in0.0 mm
03:47 AM 28.6°F-1.9°C 19.7°F-6.8°C 69% 13.0 mph NNW20.9 kmh NNW 20.0 mph32.2 kmh 30.50 in1032.8 mb 0.00 in0.0 mm 0.00 in/hr0.0 mm/hr 0.00 in0.0 mm
03:46 AM 28.6°F-1.9°C 19.7°F-6.8°C 69% 12.0 mph NNW19.3 kmh NNW 20.0 mph32.2 kmh 30.50 in1032.8 mb 0.00 in0.0 mm 0.00 in/hr0.0 mm/hr 0.00 in0.0 mm
03:45 AM 28.6°F-1.9°C 19.7°F-6.8°C 69% 11.0 mph NNW17.7 kmh NNW 20.0 mph32.2 kmh 30.49 in1032.5 mb 0.00 in0.0 mm 0.00 in/hr0.0 mm/hr 0.00 in0.0 mm
03:44 AM 28.7°F-1.8°C 19.8°F-6.8°C 69% 11.0 mph NW17.7 kmh NW 20.0 mph32.2 kmh 30.49 in1032.5 mb 0.00 in0.0 mm 0.00 in/hr0.0 mm/hr 0.00 in0.0 mm
03:43 AM 28.7°F-1.8°C 19.8°F-6.8°C 69% 13.0 mph NW20.9 kmh NW 20.0 mph32.2 kmh 30.49 in1032.5 mb 0.00 in0.0 mm 0.00 in/hr0.0 mm/hr 0.00 in0.0 mm
03:42 AM 28.7°F-1.8°C 19.8°F-6.8°C 69% 10.0 mph NW16.1 kmh NW 20.0 mph32.2 kmh 30.49 in1032.5 mb 0.00 in0.0 mm 0.00 in/hr0.0 mm/hr 0.00 in0.0 mm
03:41 AM 28.7°F-1.8°C 19.8°F-6.8°C 69% 12.0 mph NNW19.3 kmh NNW 20.0 mph32.2 kmh 30.49 in1032.5 mb 0.00 in0.0 mm 0.00 in/hr0.0 mm/hr 0.00 in0.0 mm
03:40 AM 28.8°F-1.8°C 19.9°F-6.7°C 69% 13.0 mph NW20.9 kmh NW 20.0 mph32.2 kmh 30.49 in1032.5 mb 0.00 in0.0 mm 0.00 in/hr0.0 mm/hr 0.00 in0.0 mm
03:39 AM 28.8°F-1.8°C 19.9°F-6.7°C 69% 17.0 mph NNW27.4 kmh NNW 20.0 mph32.2 kmh 30.49 in1032.5 mb 0.00 in0.0 mm 0.00 in/hr0.0 mm/hr 0.00 in0.0 mm
03:38 AM 28.8°F-1.8°C 19.9°F-6.7°C 69% 13.0 mph NNW20.9 kmh NNW 20.0 mph32.2 kmh 30.49 in1032.5 mb 0.00 in0.0 mm 0.00 in/hr0.0 mm/hr 0.00 in0.0 mm
03:37 AM 28.8°F-1.8°C 19.9°F-6.7°C 69% 17.0 mph NW27.4 kmh NW 20.0 mph32.2 kmh 30.49 in1032.5 mb 0.00 in0.0 mm 0.00 in/hr0.0 mm/hr 0.00 in0.0 mm
03:36 AM 28.8°F-1.8°C 19.9°F-6.7°C 69% 12.0 mph NW19.3 kmh NW 19.0 mph30.6 kmh 30.49 in1032.5 mb 0.00 in0.0 mm 0.00 in/hr0.0 mm/hr 0.00 in0.0 mm
03:35 AM 28.8°F-1.8°C 19.9°F-6.7°C 69% 11.0 mph NNW17.7 kmh NNW 19.0 mph30.6 kmh 30.49 in1032.5 mb 0.00 in0.0 mm 0.00 in/hr0.0 mm/hr 0.00 in0.0 mm
03:34 AM 28.9°F-1.7°C 20.0°F-6.7°C 69% 13.0 mph NNW20.9 kmh NNW 19.0 mph30.6 kmh 30.49 in1032.5 mb 0.00 in0.0 mm 0.00 in/hr0.0 mm/hr 0.00 in0.0 mm
03:33 AM 28.9°F-1.7°C 20.0°F-6.7°C 69% 15.0 mph NW24.1 kmh NW 19.0 mph30.6 kmh 30.49 in1032.5 mb 0.00 in0.0 mm 0.00 in/hr0.0 mm/hr 0.00 in0.0 mm
03:32 AM 28.9°F-1.7°C 20.0°F-6.7°C 69% 16.0 mph NW25.7 kmh NW 19.0 mph30.6 kmh 30.49 in1032.5 mb 0.00 in0.0 mm 0.00 in/hr0.0 mm/hr 0.00 in0.0 mm
03:31 AM 29.0°F-1.7°C 19.8°F-6.8°C 68% 13.0 mph NW20.9 kmh NW 21.0 mph33.8 kmh 30.49 in1032.5 mb 0.00 in0.0 mm 0.00 in/hr0.0 mm/hr 0.00 in0.0 mm
03:30 AM 29.0°F-1.7°C 20.1°F-6.6°C 69% 13.0 mph NW20.9 kmh NW 21.0 mph33.8 kmh 30.49 in1032.5 mb 0.00 in0.0 mm 0.00 in/hr0.0 mm/hr 0.00 in0.0 mm
03:29 AM 29.1°F-1.6°C 19.9°F-6.7°C 68% 15.0 mph NNW24.1 kmh NNW 21.0 mph33.8 kmh 30.49 in1032.5 mb 0.00 in0.0 mm 0.00 in/hr0.0 mm/hr 0.00 in0.0 mm
03:28 AM 29.1°F-1.6°C 19.9°F-6.7°C 68% 12.0 mph NNW19.3 kmh NNW 21.0 mph33.8 kmh 30.49 in1032.5 mb 0.00 in0.0 mm 0.00 in/hr0.0 mm/hr 0.00 in0.0 mm
03:27 AM 29.1°F-1.6°C 19.9°F-6.7°C 68% 15.0 mph NNW24.1 kmh NNW 21.0 mph33.8 kmh 30.49 in1032.5 mb 0.00 in0.0 mm 0.00 in/hr0.0 mm/hr 0.00 in0.0 mm
03:26 AM 29.1°F-1.6°C 19.9°F-6.7°C 68% 14.0 mph NNW22.5 kmh NNW 21.0 mph33.8 kmh 30.49 in1032.5 mb 0.00 in0.0 mm 0.00 in/hr0.0 mm/hr 0.00 in0.0 mm
03:25 AM 29.2°F-1.6°C 20.0°F-6.7°C 68% 12.0 mph NW19.3 kmh NW 21.0 mph33.8 kmh 30.49 in1032.5 mb 0.00 in0.0 mm 0.00 in/hr0.0 mm/hr 0.00 in0.0 mm
03:24 AM 29.2°F-1.6°C 20.0°F-6.7°C 68% 12.0 mph NW19.3 kmh NW 21.0 mph33.8 kmh 30.49 in1032.5 mb 0.00 in0.0 mm 0.00 in/hr0.0 mm/hr 0.00 in0.0 mm
03:23 AM 29.2°F-1.6°C 20.0°F-6.7°C 68% 14.0 mph NNW22.5 kmh NNW 21.0 mph33.8 kmh 30.49 in1032.5 mb 0.00 in0.0 mm 0.00 in/hr0.0 mm/hr 0.00 in0.0 mm
03:22 AM 29.2°F-1.6°C 20.0°F-6.7°C 68% 11.0 mph NW17.7 kmh NW 21.0 mph33.8 kmh 30.49 in1032.5 mb 0.00 in0.0 mm 0.00 in/hr0.0 mm/hr 0.00 in0.0 mm
03:21 AM 29.2°F-1.6°C 20.0°F-6.7°C 68% 11.0 mph NNW17.7 kmh NNW 21.0 mph33.8 kmh 30.49 in1032.5 mb 0.00 in0.0 mm 0.00 in/hr0.0 mm/hr 0.00 in0.0 mm
03:20 AM 29.2°F-1.6°C 20.0°F-6.7°C 68% 12.0 mph NW19.3 kmh NW 21.0 mph33.8 kmh 30.50 in1032.8 mb 0.00 in0.0 mm 0.00 in/hr0.0 mm/hr 0.00 in0.0 mm
03:19 AM 29.2°F-1.6°C 20.0°F-6.7°C 68% 14.0 mph NNW22.5 kmh NNW 21.0 mph33.8 kmh 30.49 in1032.5 mb 0.00 in0.0 mm 0.00 in/hr0.0 mm/hr 0.00 in0.0 mm
03:18 AM 29.2°F-1.6°C 20.0°F-6.7°C 68% 13.0 mph NW20.9 kmh NW 21.0 mph33.8 kmh 30.49 in1032.5 mb 0.00 in0.0 mm 0.00 in/hr0.0 mm/hr 0.00 in0.0 mm
03:17 AM 29.2°F-1.6°C 20.0°F-6.7°C 68% 17.0 mph NW27.4 kmh NW 21.0 mph33.8 kmh 30.49 in1032.5 mb 0.00 in0.0 mm 0.00 in/hr0.0 mm/hr 0.00 in0.0 mm
03:16 AM 29.1°F-1.6°C 19.9°F-6.7°C 68% 16.0 mph NNW25.7 kmh NNW 21.0 mph33.8 kmh 30.49 in1032.5 mb 0.00 in0.0 mm 0.00 in/hr0.0 mm/hr 0.00 in0.0 mm
03:15 AM 29.1°F-1.6°C 19.9°F-6.7°C 68% 13.0 mph NNW20.9 kmh NNW 21.0 mph33.8 kmh 30.49 in1032.5 mb 0.00 in0.0 mm 0.00 in/hr0.0 mm/hr 0.00 in0.0 mm
03:14 AM 29.1°F-1.6°C 19.9°F-6.7°C 68% 14.0 mph NNW22.5 kmh NNW 21.0 mph33.8 kmh 30.49 in1032.5 mb 0.00 in0.0 mm 0.00 in/hr0.0 mm/hr 0.00 in0.0 mm
03:13 AM 29.2°F-1.6°C 20.0°F-6.7°C 68% 13.0 mph NW20.9 kmh NW 21.0 mph33.8 kmh 30.49 in1032.5 mb 0.00 in0.0 mm 0.00 in/hr0.0 mm/hr 0.00 in0.0 mm
03:12 AM 29.3°F-1.5°C 20.1°F-6.6°C 68% 12.0 mph NW19.3 kmh NW 21.0 mph33.8 kmh 30.49 in1032.5 mb 0.00 in0.0 mm 0.00 in/hr0.0 mm/hr 0.00 in0.0 mm
03:11 AM 29.3°F-1.5°C 20.1°F-6.6°C 68% 14.0 mph NNW22.5 kmh NNW 21.0 mph33.8 kmh 30.49 in1032.5 mb 0.00 in0.0 mm 0.00 in/hr0.0 mm/hr 0.00 in0.0 mm
03:10 AM 29.4°F-1.4°C 20.2°F-6.6°C 68% 15.0 mph NNW24.1 kmh NNW 21.0 mph33.8 kmh 30.49 in1032.5 mb 0.00 in0.0 mm 0.00 in/hr0.0 mm/hr 0.00 in0.0 mm
03:09 AM 29.4°F-1.4°C 19.8°F-6.8°C 67% 15.0 mph NNW24.1 kmh NNW 21.0 mph33.8 kmh 30.49 in1032.5 mb 0.00 in0.0 mm 0.00 in/hr0.0 mm/hr 0.00 in0.0 mm
03:08 AM 29.4°F-1.4°C 19.8°F-6.8°C 67% 16.0 mph NNW25.7 kmh NNW 21.0 mph33.8 kmh 30.49 in1032.5 mb 0.00 in0.0 mm 0.00 in/hr0.0 mm/hr 0.00 in0.0 mm
03:07 AM 29.5°F-1.4°C 19.9°F-6.7°C 67% 15.0 mph NNW24.1 kmh NNW 21.0 mph33.8 kmh 30.49 in1032.5 mb 0.00 in0.0 mm 0.00 in/hr0.0 mm/hr 0.00 in0.0 mm
03:06 AM 29.5°F-1.4°C 19.9°F-6.7°C 67% 16.0 mph NNW25.7 kmh NNW 21.0 mph33.8 kmh 30.49 in1032.5 mb 0.00 in0.0 mm 0.00 in/hr0.0 mm/hr 0.00 in0.0 mm
03:05 AM 29.6°F-1.3°C 20.0°F-6.7°C 67% 18.0 mph NNW29.0 kmh NNW 21.0 mph33.8 kmh 30.49 in1032.5 mb 0.00 in0.0 mm 0.00 in/hr0.0 mm/hr 0.00 in0.0 mm
03:04 AM 29.6°F-1.3°C 20.0°F-6.7°C 67% 13.0 mph NW20.9 kmh NW 18.0 mph29.0 kmh 30.49 in1032.5 mb 0.00 in0.0 mm 0.00 in/hr0.0 mm/hr 0.00 in0.0 mm
03:03 AM 29.6°F-1.3°C 20.0°F-6.7°C 67% 11.0 mph NNW17.7 kmh NNW 18.0 mph29.0 kmh 30.49 in1032.5 mb 0.00 in0.0 mm 0.00 in/hr0.0 mm/hr 0.00 in0.0 mm
03:02 AM 29.6°F-1.3°C 20.0°F-6.7°C 67% 16.0 mph NNW25.7 kmh NNW 18.0 mph29.0 kmh 30.49 in1032.5 mb 0.00 in0.0 mm 0.00 in/hr0.0 mm/hr 0.00 in0.0 mm
03:01 AM 29.5°F-1.4°C 19.9°F-6.7°C 67% 16.0 mph NW25.7 kmh NW 21.0 mph33.8 kmh 30.48 in1032.2 mb 0.00 in0.0 mm 0.00 in/hr0.0 mm/hr 0.00 in0.0 mm
03:00 AM 29.5°F-1.4°C 19.9°F-6.7°C 67% 13.0 mph NW20.9 kmh NW 21.0 mph33.8 kmh 30.49 in1032.5 mb 0.00 in0.0 mm 0.00 in/hr0.0 mm/hr 0.00 in0.0 mm
02:59 AM 29.5°F-1.4°C 19.9°F-6.7°C 67% 14.0 mph NNW22.5 kmh NNW 21.0 mph33.8 kmh 30.48 in1032.2 mb 0.00 in0.0 mm 0.00 in/hr0.0 mm/hr 0.00 in0.0 mm
02:58 AM 29.5°F-1.4°C 20.3°F-6.5°C 68% 13.0 mph NW20.9 kmh NW 21.0 mph33.8 kmh 30.49 in1032.5 mb 0.00 in0.0 mm 0.00 in/hr0.0 mm/hr 0.00 in0.0 mm
02:57 AM 29.4°F-1.4°C 20.2°F-6.6°C 68% 13.0 mph N20.9 kmh N 21.0 mph33.8 kmh 30.49 in1032.5 mb 0.00 in0.0 mm 0.00 in/hr0.0 mm/hr 0.00 in0.0 mm
02:56 AM 29.4°F-1.4°C 20.2°F-6.6°C 68% 15.0 mph NNW24.1 kmh NNW 21.0 mph33.8 kmh 30.48 in1032.2 mb 0.00 in0.0 mm 0.00 in/hr0.0 mm/hr 0.00 in0.0 mm
02:55 AM 29.4°F-1.4°C 20.2°F-6.6°C 68% 16.0 mph NW25.7 kmh NW 21.0 mph33.8 kmh 30.49 in1032.5 mb 0.00 in0.0 mm 0.00 in/hr0.0 mm/hr 0.00 in0.0 mm
02:54 AM 29.4°F-1.4°C 20.2°F-6.6°C 68% 16.0 mph N25.7 kmh N 21.0 mph33.8 kmh 30.48 in1032.2 mb 0.00 in0.0 mm 0.00 in/hr0.0 mm/hr 0.00 in0.0 mm
02:53 AM 29.3°F-1.5°C 20.4°F-6.4°C 69% 13.0 mph NW20.9 kmh NW 21.0 mph33.8 kmh 30.48 in1032.2 mb 0.00 in0.0 mm 0.00 in/hr0.0 mm/hr 0.00 in0.0 mm
02:52 AM 29.3°F-1.5°C 20.4°F-6.4°C 69% 13.0 mph NW20.9 kmh NW 21.0 mph33.8 kmh 30.48 in1032.2 mb 0.00 in0.0 mm 0.00 in/hr0.0 mm/hr 0.00 in0.0 mm
02:51 AM 29.3°F-1.5°C 20.4°F-6.4°C 69% 16.0 mph NNW25.7 kmh NNW 21.0 mph33.8 kmh 30.48 in1032.2 mb 0.00 in0.0 mm 0.00 in/hr0.0 mm/hr 0.00 in0.0 mm
02:50 AM 29.3°F-1.5°C 20.4°F-6.4°C 69% 18.0 mph NNW29.0 kmh NNW 21.0 mph33.8 kmh 30.48 in1032.2 mb 0.00 in0.0 mm 0.00 in/hr0.0 mm/hr 0.00 in0.0 mm
02:49 AM 29.2°F-1.6°C 20.3°F-6.5°C 69% 18.0 mph N29.0 kmh N 21.0 mph33.8 kmh 30.48 in1032.2 mb 0.00 in0.0 mm 0.00 in/hr0.0 mm/hr 0.00 in0.0 mm
02:48 AM 29.2°F-1.6°C 20.7°F-6.3°C 70% 12.0 mph NW19.3 kmh NW 19.0 mph30.6 kmh 30.49 in1032.5 mb 0.00 in0.0 mm 0.00 in/hr0.0 mm/hr 0.00 in0.0 mm
02:47 AM 29.2°F-1.6°C 20.7°F-6.3°C 70% 13.0 mph NNW20.9 kmh NNW 19.0 mph30.6 kmh 30.48 in1032.2 mb 0.00 in0.0 mm 0.00 in/hr0.0 mm/hr 0.00 in0.0 mm
02:46 AM 29.2°F-1.6°C 20.7°F-6.3°C 70% 16.0 mph NW25.7 kmh NW 19.0 mph30.6 kmh 30.48 in1032.2 mb 0.00 in0.0 mm 0.00 in/hr0.0 mm/hr 0.00 in0.0 mm
02:45 AM 29.2°F-1.6°C 20.7°F-6.3°C 70% 14.0 mph NW22.5 kmh NW 19.0 mph30.6 kmh 30.48 in1032.2 mb 0.00 in0.0 mm 0.00 in/hr0.0 mm/hr 0.00 in0.0 mm
02:44 AM 29.2°F-1.6°C 20.7°F-6.3°C 70% 13.0 mph N20.9 kmh N 19.0 mph30.6 kmh 30.48 in1032.2 mb 0.00 in0.0 mm 0.00 in/hr0.0 mm/hr 0.00 in0.0 mm
02:43 AM 29.2°F-1.6°C 20.7°F-6.3°C 70% 14.0 mph NW22.5 kmh NW 19.0 mph30.6 kmh 30.48 in1032.2 mb 0.00 in0.0 mm 0.00 in/hr0.0 mm/hr 0.00 in0.0 mm
02:42 AM 29.3°F-1.5°C 20.7°F-6.3°C 70% 13.0 mph NW20.9 kmh NW 19.0 mph30.6 kmh 30.48 in1032.2 mb 0.00 in0.0 mm 0.00 in/hr0.0 mm/hr 0.00 in0.0 mm
02:41 AM 29.4°F-1.4°C 20.8°F-6.2°C 70% 10.0 mph NW16.1 kmh NW 19.0 mph30.6 kmh 30.48 in1032.2 mb 0.00 in0.0 mm 0.00 in/hr0.0 mm/hr 0.00 in0.0 mm
02:40 AM 29.4°F-1.4°C 20.8°F-6.2°C 70% 14.0 mph NNW22.5 kmh NNW 19.0 mph30.6 kmh 30.48 in1032.2 mb 0.00 in0.0 mm 0.00 in/hr0.0 mm/hr 0.00 in0.0 mm
02:39 AM 29.4°F-1.4°C 20.8°F-6.2°C 70% 13.0 mph NW20.9 kmh NW 19.0 mph30.6 kmh 30.48 in1032.2 mb 0.00 in0.0 mm 0.00 in/hr0.0 mm/hr 0.00 in0.0 mm
02:38 AM 29.4°F-1.4°C 20.8°F-6.2°C 70% 12.0 mph NW19.3 kmh NW 19.0 mph30.6 kmh 30.48 in1032.2 mb 0.00 in0.0 mm 0.00 in/hr0.0 mm/hr 0.00 in0.0 mm
02:37 AM 29.4°F-1.4°C 20.8°F-6.2°C 70% 13.0 mph NNW20.9 kmh NNW 19.0 mph30.6 kmh 30.48 in1032.2 mb 0.00 in0.0 mm 0.00 in/hr0.0 mm/hr 0.00 in0.0 mm
02:36 AM 29.4°F-1.4°C 20.8°F-6.2°C 70% 13.0 mph NW20.9 kmh NW 19.0 mph30.6 kmh 30.48 in1032.2 mb 0.00 in0.0 mm 0.00 in/hr0.0 mm/hr 0.00 in0.0 mm
02:35 AM 29.4°F-1.4°C 20.8°F-6.2°C 70% 13.0 mph NW20.9 kmh NW 19.0 mph30.6 kmh 30.48 in1032.2 mb 0.00 in0.0 mm 0.00 in/hr0.0 mm/hr 0.00 in0.0 mm
02:34 AM 29.4°F-1.4°C 20.8°F-6.2°C 70% 16.0 mph NNW25.7 kmh NNW 19.0 mph30.6 kmh 30.48 in1032.2 mb 0.00 in0.0 mm 0.00 in/hr0.0 mm/hr 0.00 in0.0 mm
02:33 AM 29.3°F-1.5°C 20.7°F-6.3°C 70% 16.0 mph NNW25.7 kmh NNW 19.0 mph30.6 kmh 30.48 in1032.2 mb 0.00 in0.0 mm 0.00 in/hr0.0 mm/hr 0.00 in0.0 mm
02:32 AM 29.3°F-1.5°C 20.7°F-6.3°C 70% 14.0 mph NNW22.5 kmh NNW 18.0 mph29.0 kmh 30.48 in1032.2 mb 0.00 in0.0 mm 0.00 in/hr0.0 mm/hr 0.00 in0.0 mm
02:31 AM 29.3°F-1.5°C 20.7°F-6.3°C 70% 16.0 mph NW25.7 kmh NW 19.0 mph30.6 kmh 30.47 in1031.8 mb 0.00 in0.0 mm 0.00 in/hr0.0 mm/hr 0.00 in0.0 mm
02:30 AM 29.4°F-1.4°C 20.8°F-6.2°C 70% 15.0 mph NW24.1 kmh NW 19.0 mph30.6 kmh 30.47 in1031.8 mb 0.00 in0.0 mm 0.00 in/hr0.0 mm/hr 0.00 in0.0 mm
02:29 AM 29.4°F-1.4°C 20.8°F-6.2°C 70% 14.0 mph NNW22.5 kmh NNW 19.0 mph30.6 kmh 30.47 in1031.8 mb 0.00 in0.0 mm 0.00 in/hr0.0 mm/hr 0.00 in0.0 mm
02:28 AM 29.4°F-1.4°C 20.8°F-6.2°C 70% 11.0 mph NW17.7 kmh NW 19.0 mph30.6 kmh 30.47 in1031.8 mb 0.00 in0.0 mm 0.00 in/hr0.0 mm/hr 0.00 in0.0 mm
02:27 AM 29.4°F-1.4°C 20.8°F-6.2°C 70% 14.0 mph NW22.5 kmh NW 17.0 mph27.4 kmh 30.48 in1032.2 mb 0.00 in0.0 mm 0.00 in/hr0.0 mm/hr 0.00 in0.0 mm
02:26 AM 29.5°F-1.4°C 20.9°F-6.2°C 70% 15.0 mph NNW24.1 kmh NNW 17.0 mph27.4 kmh 30.47 in1031.8 mb 0.00 in0.0 mm 0.00 in/hr0.0 mm/hr 0.00 in0.0 mm
02:25 AM 29.5°F-1.4°C 20.9°F-6.2°C 70% 15.0 mph NNW24.1 kmh NNW 17.0 mph27.4 kmh 30.47 in1031.8 mb 0.00 in0.0 mm 0.00 in/hr0.0 mm/hr 0.00 in0.0 mm
02:24 AM 29.5°F-1.4°C 20.9°F-6.2°C 70% 14.0 mph NW22.5 kmh NW 17.0 mph27.4 kmh 30.47 in1031.8 mb 0.00 in0.0 mm 0.00 in/hr0.0 mm/hr 0.00 in0.0 mm
02:23 AM 29.6°F-1.3°C 21.0°F-6.1°C 70% 13.0 mph NW20.9 kmh NW 17.0 mph27.4 kmh 30.47 in1031.8 mb 0.00 in0.0 mm 0.00 in/hr0.0 mm/hr 0.00 in0.0 mm
02:22 AM 29.6°F-1.3°C 21.0°F-6.1°C 70% 14.0 mph NNW22.5 kmh NNW 17.0 mph27.4 kmh 30.47 in1031.8 mb 0.00 in0.0 mm 0.00 in/hr0.0 mm/hr 0.00 in0.0 mm
02:21 AM 29.6°F-1.3°C 21.0°F-6.1°C 70% 12.0 mph NNW19.3 kmh NNW 17.0 mph27.4 kmh 30.48 in1032.2 mb 0.00 in0.0 mm 0.00 in/hr0.0 mm/hr 0.00 in0.0 mm
02:20 AM 29.6°F-1.3°C 20.7°F-6.3°C 69% 12.0 mph NW19.3 kmh NW 17.0 mph27.4 kmh 30.48 in1032.2 mb 0.00 in0.0 mm 0.00 in/hr0.0 mm/hr 0.00 in0.0 mm
02:19 AM 29.7°F-1.3°C 20.8°F-6.2°C 69% 14.0 mph NNW22.5 kmh NNW 17.0 mph27.4 kmh 30.47 in1031.8 mb 0.00 in0.0 mm 0.00 in/hr0.0 mm/hr 0.00 in0.0 mm
02:18 AM 29.8°F-1.2°C 20.9°F-6.2°C 69% 11.0 mph NW17.7 kmh NW 17.0 mph27.4 kmh 30.47 in1031.8 mb 0.00 in0.0 mm 0.00 in/hr0.0 mm/hr 0.00 in0.0 mm
02:17 AM 29.8°F-1.2°C 20.9°F-6.2°C 69% 12.0 mph NW19.3 kmh NW 17.0 mph27.4 kmh 30.47 in1031.8 mb 0.00 in0.0 mm 0.00 in/hr0.0 mm/hr 0.00 in0.0 mm
02:16 AM 29.9°F-1.2°C 21.0°F-6.1°C 69% 13.0 mph NNW20.9 kmh NNW 17.0 mph27.4 kmh 30.47 in1031.8 mb 0.00 in0.0 mm 0.00 in/hr0.0 mm/hr 0.00 in0.0 mm
02:15 AM 29.9°F-1.2°C 20.6°F-6.3°C 68% 13.0 mph NNW20.9 kmh NNW 17.0 mph27.4 kmh 30.47 in1031.8 mb 0.00 in0.0 mm 0.00 in/hr0.0 mm/hr 0.00 in0.0 mm
02:14 AM 30.0°F-1.1°C 20.7°F-6.3°C 68% 14.0 mph NNW22.5 kmh NNW 17.0 mph27.4 kmh 30.47 in1031.8 mb 0.00 in0.0 mm 0.00 in/hr0.0 mm/hr 0.00 in0.0 mm
02:13 AM 30.1°F-1.1°C 20.8°F-6.2°C 68% 15.0 mph NNW24.1 kmh NNW 17.0 mph27.4 kmh 30.47 in1031.8 mb 0.00 in0.0 mm 0.00 in/hr0.0 mm/hr 0.00 in0.0 mm
02:12 AM 30.1°F-1.1°C 20.5°F-6.4°C 67% 14.0 mph NNW22.5 kmh NNW 17.0 mph27.4 kmh 30.47 in1031.8 mb 0.00 in0.0 mm 0.00 in/hr0.0 mm/hr 0.00 in0.0 mm
02:11 AM 30.2°F-1.0°C 20.6°F-6.3°C 67% 10.0 mph NNW16.1 kmh NNW 17.0 mph27.4 kmh 30.47 in1031.8 mb 0.00 in0.0 mm 0.00 in/hr0.0 mm/hr 0.00 in0.0 mm
02:10 AM 30.3°F-0.9°C 20.7°F-6.3°C 67% 11.0 mph NW17.7 kmh NW 17.0 mph27.4 kmh 30.47 in1031.8 mb 0.00 in0.0 mm 0.00 in/hr0.0 mm/hr 0.00 in0.0 mm
02:09 AM 30.3°F-0.9°C 20.7°F-6.3°C 67% 14.0 mph N22.5 kmh N 17.0 mph27.4 kmh 30.47 in1031.8 mb 0.00 in0.0 mm 0.00 in/hr0.0 mm/hr 0.00 in0.0 mm
02:08 AM 30.3°F-0.9°C 20.3°F-6.5°C 66% 13.0 mph NW20.9 kmh NW 17.0 mph27.4 kmh 30.47 in1031.8 mb 0.00 in0.0 mm 0.00 in/hr0.0 mm/hr 0.00 in0.0 mm
02:07 AM 30.4°F-0.9°C 20.8°F-6.2°C 67% 14.0 mph NNW22.5 kmh NNW 17.0 mph27.4 kmh 30.47 in1031.8 mb 0.00 in0.0 mm 0.00 in/hr0.0 mm/hr 0.00 in0.0 mm
02:06 AM 30.4°F-0.9°C 20.8°F-6.2°C 67% 15.0 mph NW24.1 kmh NW 17.0 mph27.4 kmh 30.47 in1031.8 mb 0.00 in0.0 mm 0.00 in/hr0.0 mm/hr 0.00 in0.0 mm
02:05 AM 30.3°F-0.9°C 20.7°F-6.3°C 67% 13.0 mph NW20.9 kmh NW 17.0 mph27.4 kmh 30.47 in1031.8 mb 0.00 in0.0 mm 0.00 in/hr0.0 mm/hr 0.00 in0.0 mm
02:04 AM 30.3°F-0.9°C 20.7°F-6.3°C 67% 12.0 mph NNW19.3 kmh NNW 17.0 mph27.4 kmh 30.47 in1031.8 mb 0.00 in0.0 mm 0.00 in/hr0.0 mm/hr 0.00 in0.0 mm
02:03 AM 30.3°F-0.9°C 20.7°F-6.3°C 67% 13.0 mph NNW20.9 kmh NNW 17.0 mph27.4 kmh 30.47 in1031.8 mb 0.00 in0.0 mm 0.00 in/hr0.0 mm/hr 0.00 in0.0 mm
02:02 AM 30.3°F-0.9°C 20.7°F-6.3°C 67% 12.0 mph N19.3 kmh N 15.0 mph24.1 kmh 30.47 in1031.8 mb 0.00 in0.0 mm 0.00 in/hr0.0 mm/hr 0.00 in0.0 mm
02:01 AM 30.4°F-0.9°C 20.8°F-6.2°C 67% 13.0 mph NNW20.9 kmh NNW 21.0 mph33.8 kmh 30.47 in1031.8 mb 0.00 in0.0 mm 0.00 in/hr0.0 mm/hr 0.00 in0.0 mm
02:00 AM 30.4°F-0.9°C 20.8°F-6.2°C 67% 12.0 mph NNW19.3 kmh NNW 21.0 mph33.8 kmh 30.47 in1031.8 mb 0.00 in0.0 mm 0.00 in/hr0.0 mm/hr 0.00 in0.0 mm
01:59 AM 30.4°F-0.9°C 20.8°F-6.2°C 67% 12.0 mph NNW19.3 kmh NNW 21.0 mph33.8 kmh 30.47 in1031.8 mb 0.00 in0.0 mm 0.00 in/hr0.0 mm/hr 0.00 in0.0 mm
01:58 AM 30.5°F-0.8°C 20.9°F-6.2°C 67% 15.0 mph NNW24.1 kmh NNW 21.0 mph33.8 kmh 30.46 in1031.5 mb 0.00 in0.0 mm 0.00 in/hr0.0 mm/hr 0.00 in0.0 mm
01:57 AM 30.5°F-0.8°C 20.9°F-6.2°C 67% 11.0 mph NNW17.7 kmh NNW 21.0 mph33.8 kmh 30.46 in1031.5 mb 0.00 in0.0 mm 0.00 in/hr0.0 mm/hr 0.00 in0.0 mm
01:56 AM 30.5°F-0.8°C 20.5°F-6.4°C 66% 15.0 mph NNW24.1 kmh NNW 21.0 mph33.8 kmh 30.46 in1031.5 mb 0.00 in0.0 mm 0.00 in/hr0.0 mm/hr 0.00 in0.0 mm
01:55 AM 30.6°F-0.8°C 20.6°F-6.3°C 66% 16.0 mph NW25.7 kmh NW 21.0 mph33.8 kmh 30.46 in1031.5 mb 0.00 in0.0 mm 0.00 in/hr0.0 mm/hr 0.00 in0.0 mm
01:54 AM 30.6°F-0.8°C 21.0°F-6.1°C 67% 15.0 mph NNW24.1 kmh NNW 21.0 mph33.8 kmh 30.46 in1031.5 mb 0.00 in0.0 mm 0.00 in/hr0.0 mm/hr 0.00 in0.0 mm
01:53 AM 30.7°F-0.7°C 20.7°F-6.3°C 66% 12.0 mph NW19.3 kmh NW 21.0 mph33.8 kmh 30.46 in1031.5 mb 0.00 in0.0 mm 0.00 in/hr0.0 mm/hr 0.00 in0.0 mm
01:52 AM 30.8°F-0.7°C 20.8°F-6.2°C 66% 11.0 mph NW17.7 kmh NW 21.0 mph33.8 kmh 30.46 in1031.5 mb 0.00 in0.0 mm 0.00 in/hr0.0 mm/hr 0.00 in0.0 mm
01:51 AM 30.8°F-0.7°C 20.8°F-6.2°C 66% 13.0 mph NW20.9 kmh NW 21.0 mph33.8 kmh 30.46 in1031.5 mb 0.00 in0.0 mm 0.00 in/hr0.0 mm/hr 0.00 in0.0 mm
01:50 AM 30.8°F-0.7°C 20.8°F-6.2°C 66% 15.0 mph NNW24.1 kmh NNW 21.0 mph33.8 kmh 30.46 in1031.5 mb 0.00 in0.0 mm 0.00 in/hr0.0 mm/hr 0.00 in0.0 mm
01:49 AM 30.8°F-0.7°C 20.8°F-6.2°C 66% 17.0 mph NNW27.4 kmh NNW 21.0 mph33.8 kmh 30.46 in1031.5 mb 0.00 in0.0 mm 0.00 in/hr0.0 mm/hr 0.00 in0.0 mm
01:48 AM 30.9°F-0.6°C 20.9°F-6.2°C 66% 15.0 mph NW24.1 kmh NW 21.0 mph33.8 kmh 30.46 in1031.5 mb 0.00 in0.0 mm 0.00 in/hr0.0 mm/hr 0.00 in0.0 mm
01:47 AM 30.9°F-0.6°C 20.5°F-6.4°C 65% 17.0 mph NNW27.4 kmh NNW 21.0 mph33.8 kmh 30.46 in1031.5 mb 0.00 in0.0 mm 0.00 in/hr0.0 mm/hr 0.00 in0.0 mm
01:46 AM 30.9°F-0.6°C 20.5°F-6.4°C 65% 15.0 mph NW24.1 kmh NW 21.0 mph33.8 kmh 30.45 in1031.2 mb 0.00 in0.0 mm 0.00 in/hr0.0 mm/hr 0.00 in0.0 mm
01:45 AM 30.9°F-0.6°C 20.5°F-6.4°C 65% 14.0 mph NNW22.5 kmh NNW 21.0 mph33.8 kmh 30.46 in1031.5 mb 0.00 in0.0 mm 0.00 in/hr0.0 mm/hr 0.00 in0.0 mm
01:44 AM 30.9°F-0.6°C 20.5°F-6.4°C 65% 15.0 mph NW24.1 kmh NW 21.0 mph33.8 kmh 30.46 in1031.5 mb 0.00 in0.0 mm 0.00 in/hr0.0 mm/hr 0.00 in0.0 mm
01:43 AM 30.9°F-0.6°C 20.9°F-6.2°C 66% 17.0 mph NNW27.4 kmh NNW 21.0 mph33.8 kmh 30.45 in1031.2 mb 0.00 in0.0 mm 0.00 in/hr0.0 mm/hr 0.00 in0.0 mm
01:42 AM 30.9°F-0.6°C 20.9°F-6.2°C 66% 13.0 mph NNW20.9 kmh NNW 21.0 mph33.8 kmh 30.45 in1031.2 mb 0.00 in0.0 mm 0.00 in/hr0.0 mm/hr 0.00 in0.0 mm
01:41 AM 31.0°F-0.6°C 21.0°F-6.1°C 66% 16.0 mph NW25.7 kmh NW 21.0 mph33.8 kmh 30.45 in1031.2 mb 0.00 in0.0 mm 0.00 in/hr0.0 mm/hr 0.00 in0.0 mm
01:40 AM 31.0°F-0.6°C 21.0°F-6.1°C 66% 16.0 mph NNW25.7 kmh NNW 21.0 mph33.8 kmh 30.45 in1031.2 mb 0.00 in0.0 mm 0.00 in/hr0.0 mm/hr 0.00 in0.0 mm
01:39 AM 31.0°F-0.6°C 21.0°F-6.1°C 66% 14.0 mph NNW22.5 kmh NNW 21.0 mph33.8 kmh 30.45 in1031.2 mb 0.00 in0.0 mm 0.00 in/hr0.0 mm/hr 0.00 in0.0 mm
01:38 AM 31.1°F-0.5°C 21.1°F-6.1°C 66% 14.0 mph N22.5 kmh N 21.0 mph33.8 kmh 30.45 in1031.2 mb 0.00 in0.0 mm 0.00 in/hr0.0 mm/hr 0.00 in0.0 mm
01:37 AM 31.1°F-0.5°C 21.1°F-6.1°C 66% 17.0 mph N27.4 kmh N 21.0 mph33.8 kmh 30.45 in1031.2 mb 0.00 in0.0 mm 0.00 in/hr0.0 mm/hr 0.00 in0.0 mm
01:36 AM 31.0°F-0.6°C 21.0°F-6.1°C 66% 20.0 mph NNW32.2 kmh NNW 21.0 mph33.8 kmh 30.45 in1031.2 mb 0.00 in0.0 mm 0.00 in/hr0.0 mm/hr 0.00 in0.0 mm
01:35 AM 31.1°F-0.5°C 21.1°F-6.1°C 66% 19.0 mph NNW30.6 kmh NNW 21.0 mph33.8 kmh 30.45 in1031.2 mb 0.00 in0.0 mm 0.00 in/hr0.0 mm/hr 0.00 in0.0 mm
01:34 AM 31.1°F-0.5°C 21.1°F-6.1°C 66% 13.0 mph NW20.9 kmh NW 21.0 mph33.8 kmh 30.45 in1031.2 mb 0.00 in0.0 mm 0.00 in/hr0.0 mm/hr 0.00 in0.0 mm
01:33 AM 31.1°F-0.5°C 21.1°F-6.1°C 66% 17.0 mph NNW27.4 kmh NNW 19.0 mph30.6 kmh 30.45 in1031.2 mb 0.00 in0.0 mm 0.00 in/hr0.0 mm/hr 0.00 in0.0 mm
01:32 AM 31.1°F-0.5°C 21.1°F-6.1°C 66% 12.0 mph N19.3 kmh N 15.0 mph24.1 kmh 30.45 in1031.2 mb 0.00 in0.0 mm 0.00 in/hr0.0 mm/hr 0.00 in0.0 mm
01:31 AM 31.1°F-0.5°C 21.1°F-6.1°C 66% 15.0 mph NNW24.1 kmh NNW 22.0 mph35.4 kmh 30.45 in1031.2 mb 0.00 in0.0 mm 0.00 in/hr0.0 mm/hr 0.00 in0.0 mm
01:30 AM 31.1°F-0.5°C 21.1°F-6.1°C 66% 13.0 mph NNW20.9 kmh NNW 22.0 mph35.4 kmh 30.44 in1030.8 mb 0.00 in0.0 mm 0.00 in/hr0.0 mm/hr 0.00 in0.0 mm
01:29 AM 31.2°F-0.4°C 21.2°F-6.0°C 66% 17.0 mph NW27.4 kmh NW 22.0 mph35.4 kmh 30.44 in1030.8 mb 0.00 in0.0 mm 0.00 in/hr0.0 mm/hr 0.00 in0.0 mm
01:28 AM 31.2°F-0.4°C 21.2°F-6.0°C 66% 13.0 mph NW20.9 kmh NW 22.0 mph35.4 kmh 30.44 in1030.8 mb 0.00 in0.0 mm 0.00 in/hr0.0 mm/hr 0.00 in0.0 mm
01:27 AM 31.2°F-0.4°C 21.2°F-6.0°C 66% 13.0 mph NNW20.9 kmh NNW 22.0 mph35.4 kmh 30.44 in1030.8 mb 0.00 in0.0 mm 0.00 in/hr0.0 mm/hr 0.00 in0.0 mm
01:26 AM 31.2°F-0.4°C 21.2°F-6.0°C 66% 15.0 mph NNW24.1 kmh NNW 22.0 mph35.4 kmh 30.44 in1030.8 mb 0.00 in0.0 mm 0.00 in/hr0.0 mm/hr 0.00 in0.0 mm
01:25 AM 31.2°F-0.4°C 21.2°F-6.0°C 66% 13.0 mph N20.9 kmh N 22.0 mph35.4 kmh 30.44 in1030.8 mb 0.00 in0.0 mm 0.00 in/hr0.0 mm/hr 0.00 in0.0 mm
01:24 AM 31.2°F-0.4°C 21.2°F-6.0°C 66% 15.0 mph N24.1 kmh N 22.0 mph35.4 kmh 30.44 in1030.8 mb 0.00 in0.0 mm 0.00 in/hr0.0 mm/hr 0.00 in0.0 mm
01:23 AM 31.2°F-0.4°C 21.2°F-6.0°C 66% 16.0 mph NNW25.7 kmh NNW 22.0 mph35.4 kmh 30.44 in1030.8 mb 0.00 in0.0 mm 0.00 in/hr0.0 mm/hr 0.00 in0.0 mm
01:22 AM 31.2°F-0.4°C 21.2°F-6.0°C 66% 17.0 mph NW27.4 kmh NW 22.0 mph35.4 kmh 30.44 in1030.8 mb 0.00 in0.0 mm 0.00 in/hr0.0 mm/hr 0.00 in0.0 mm
01:21 AM 31.2°F-0.4°C 21.2°F-6.0°C 66% 14.0 mph NW22.5 kmh NW 22.0 mph35.4 kmh 30.44 in1030.8 mb 0.00 in0.0 mm 0.00 in/hr0.0 mm/hr 0.00 in0.0 mm
01:20 AM 31.2°F-0.4°C 21.2°F-6.0°C 66% 15.0 mph NNW24.1 kmh NNW 21.0 mph33.8 kmh 30.44 in1030.8 mb 0.00 in0.0 mm 0.00 in/hr0.0 mm/hr 0.00 in0.0 mm
01:19 AM 31.3°F-0.4°C 21.3°F-5.9°C 66% 10.0 mph NNW16.1 kmh NNW 21.0 mph33.8 kmh 30.44 in1030.8 mb 0.00 in0.0 mm 0.00 in/hr0.0 mm/hr 0.00 in0.0 mm
01:18 AM 31.2°F-0.4°C 21.5°F-5.8°C 67% 14.0 mph NW22.5 kmh NW 21.0 mph33.8 kmh 30.44 in1030.8 mb 0.00 in0.0 mm 0.00 in/hr0.0 mm/hr 0.00 in0.0 mm
01:17 AM 31.3°F-0.4°C 21.6°F-5.8°C 67% 12.0 mph NNW19.3 kmh NNW 21.0 mph33.8 kmh 30.44 in1030.8 mb 0.00 in0.0 mm 0.00 in/hr0.0 mm/hr 0.00 in0.0 mm
01:16 AM 31.3°F-0.4°C 21.6°F-5.8°C 67% 14.0 mph NW22.5 kmh NW 21.0 mph33.8 kmh 30.44 in1030.8 mb 0.00 in0.0 mm 0.00 in/hr0.0 mm/hr 0.00 in0.0 mm
01:15 AM 31.3°F-0.4°C 21.6°F-5.8°C 67% 15.0 mph NNW24.1 kmh NNW 21.0 mph33.8 kmh 30.44 in1030.8 mb 0.00 in0.0 mm 0.00 in/hr0.0 mm/hr 0.00 in0.0 mm
01:14 AM 31.3°F-0.4°C 21.6°F-5.8°C 67% 16.0 mph NNW25.7 kmh NNW 21.0 mph33.8 kmh 30.44 in1030.8 mb 0.00 in0.0 mm 0.00 in/hr0.0 mm/hr 0.00 in0.0 mm
01:13 AM 31.3°F-0.4°C 21.6°F-5.8°C 67% 16.0 mph NNW25.7 kmh NNW 21.0 mph33.8 kmh 30.44 in1030.8 mb 0.00 in0.0 mm 0.00 in/hr0.0 mm/hr 0.00 in0.0 mm
01:12 AM 31.3°F-0.4°C 21.6°F-5.8°C 67% 16.0 mph NW25.7 kmh NW 21.0 mph33.8 kmh 30.45 in1031.2 mb 0.00 in0.0 mm 0.00 in/hr0.0 mm/hr 0.00 in0.0 mm
01:11 AM 31.3°F-0.4°C 21.6°F-5.8°C 67% 13.0 mph NNW20.9 kmh NNW 21.0 mph33.8 kmh 30.44 in1030.8 mb 0.00 in0.0 mm 0.00 in/hr0.0 mm/hr 0.00 in0.0 mm
01:10 AM 31.3°F-0.4°C 21.6°F-5.8°C 67% 12.0 mph NW19.3 kmh NW 20.0 mph32.2 kmh 30.44 in1030.8 mb 0.00 in0.0 mm 0.00 in/hr0.0 mm/hr 0.00 in0.0 mm
01:09 AM 31.3°F-0.4°C 21.6°F-5.8°C 67% 19.0 mph NNW30.6 kmh NNW 20.0 mph32.2 kmh 30.44 in1030.8 mb 0.00 in0.0 mm 0.00 in/hr0.0 mm/hr 0.00 in0.0 mm
01:08 AM 31.3°F-0.4°C 21.6°F-5.8°C 67% 16.0 mph N25.7 kmh N 20.0 mph32.2 kmh 30.44 in1030.8 mb 0.00 in0.0 mm 0.00 in/hr0.0 mm/hr 0.00 in0.0 mm
01:07 AM 31.4°F-0.3°C 21.7°F-5.7°C 67% 19.0 mph NNW30.6 kmh NNW 20.0 mph32.2 kmh 30.44 in1030.8 mb 0.00 in0.0 mm 0.00 in/hr0.0 mm/hr 0.00 in0.0 mm
01:06 AM 31.4°F-0.3°C 21.7°F-5.7°C 67% 14.0 mph NW22.5 kmh NW 20.0 mph32.2 kmh 30.44 in1030.8 mb 0.00 in0.0 mm 0.00 in/hr0.0 mm/hr 0.00 in0.0 mm
01:05 AM 31.4°F-0.3°C 21.7°F-5.7°C 67% 15.0 mph NW24.1 kmh NW 20.0 mph32.2 kmh 30.44 in1030.8 mb 0.00 in0.0 mm 0.00 in/hr0.0 mm/hr 0.00 in0.0 mm
01:04 AM 31.4°F-0.3°C 21.7°F-5.7°C 67% 14.0 mph N22.5 kmh N 20.0 mph32.2 kmh 30.44 in1030.8 mb 0.00 in0.0 mm 0.00 in/hr0.0 mm/hr 0.00 in0.0 mm
01:03 AM 31.4°F-0.3°C 21.7°F-5.7°C 67% 16.0 mph NNW25.7 kmh NNW 20.0 mph32.2 kmh 30.44 in1030.8 mb 0.00 in0.0 mm 0.00 in/hr0.0 mm/hr 0.00 in0.0 mm
01:02 AM 31.4°F-0.3°C 21.7°F-5.7°C 67% 13.0 mph NNW20.9 kmh NNW 19.0 mph30.6 kmh 30.44 in1030.8 mb 0.00 in0.0 mm 0.00 in/hr0.0 mm/hr 0.00 in0.0 mm
01:01 AM 31.4°F-0.3°C 21.7°F-5.7°C 67% 15.0 mph NNW24.1 kmh NNW 23.0 mph37.0 kmh 30.44 in1030.8 mb 0.00 in0.0 mm 0.00 in/hr0.0 mm/hr 0.00 in0.0 mm
01:00 AM 31.5°F-0.3°C 21.8°F-5.7°C 67% 11.0 mph N17.7 kmh N 23.0 mph37.0 kmh 30.44 in1030.8 mb 0.00 in0.0 mm 0.00 in/hr0.0 mm/hr 0.00 in0.0 mm
12:59 AM 31.5°F-0.3°C 21.8°F-5.7°C 67% 14.0 mph NNW22.5 kmh NNW 23.0 mph37.0 kmh 30.44 in1030.8 mb 0.00 in0.0 mm 0.00 in/hr0.0 mm/hr 0.00 in0.0 mm
12:58 AM 31.5°F-0.3°C 21.8°F-5.7°C 67% 12.0 mph NNW19.3 kmh NNW 23.0 mph37.0 kmh 30.43 in1030.5 mb 0.00 in0.0 mm 0.00 in/hr0.0 mm/hr 0.00 in0.0 mm
12:57 AM 31.6°F-0.2°C 21.9°F-5.6°C 67% 19.0 mph NNW30.6 kmh NNW 23.0 mph37.0 kmh 30.43 in1030.5 mb 0.00 in0.0 mm 0.00 in/hr0.0 mm/hr 0.00 in0.0 mm
12:56 AM 31.6°F-0.2°C 21.9°F-5.6°C 67% 17.0 mph NNW27.4 kmh NNW 23.0 mph37.0 kmh 30.43 in1030.5 mb 0.00 in0.0 mm 0.00 in/hr0.0 mm/hr 0.00 in0.0 mm
12:55 AM 31.7°F-0.2°C 22.0°F-5.6°C 67% 14.0 mph NNW22.5 kmh NNW 23.0 mph37.0 kmh 30.43 in1030.5 mb 0.00 in0.0 mm 0.00 in/hr0.0 mm/hr 0.00 in0.0 mm
12:54 AM 31.7°F-0.2°C 22.0°F-5.6°C 67% 16.0 mph NNW25.7 kmh NNW 23.0 mph37.0 kmh 30.43 in1030.5 mb 0.00 in0.0 mm 0.00 in/hr0.0 mm/hr 0.00 in0.0 mm
12:53 AM 31.7°F-0.2°C 22.0°F-5.6°C 67% 14.0 mph NNW22.5 kmh NNW 23.0 mph37.0 kmh 30.43 in1030.5 mb 0.00 in0.0 mm 0.00 in/hr0.0 mm/hr 0.00 in0.0 mm
12:52 AM 31.7°F-0.2°C 22.0°F-5.6°C 67% 16.0 mph NW25.7 kmh NW 23.0 mph37.0 kmh 30.43 in1030.5 mb 0.00 in0.0 mm 0.00 in/hr0.0 mm/hr 0.00 in0.0 mm
12:51 AM 31.7°F-0.2°C 22.0°F-5.6°C 67% 17.0 mph NW27.4 kmh NW 23.0 mph37.0 kmh 30.43 in1030.5 mb 0.00 in0.0 mm 0.00 in/hr0.0 mm/hr 0.00 in0.0 mm
12:50 AM 31.7°F-0.2°C 22.0°F-5.6°C 67% 18.0 mph NNW29.0 kmh NNW 23.0 mph37.0 kmh 30.43 in1030.5 mb 0.00 in0.0 mm 0.00 in/hr0.0 mm/hr 0.00 in0.0 mm
12:49 AM 31.8°F-0.1°C 22.1°F-5.5°C 67% 17.0 mph NNW27.4 kmh NNW 23.0 mph37.0 kmh 30.43 in1030.5 mb 0.00 in0.0 mm 0.00 in/hr0.0 mm/hr 0.00 in0.0 mm
12:48 AM 31.8°F-0.1°C 22.1°F-5.5°C 67% 17.0 mph NW27.4 kmh NW 23.0 mph37.0 kmh 30.43 in1030.5 mb 0.00 in0.0 mm 0.00 in/hr0.0 mm/hr 0.00 in0.0 mm
12:47 AM 31.8°F-0.1°C 22.1°F-5.5°C 67% 13.0 mph NNW20.9 kmh NNW 23.0 mph37.0 kmh 30.43 in1030.5 mb 0.00 in0.0 mm 0.00 in/hr0.0 mm/hr 0.00 in0.0 mm
12:46 AM 31.8°F-0.1°C 22.1°F-5.5°C 67% 14.0 mph NNW22.5 kmh NNW 23.0 mph37.0 kmh 30.43 in1030.5 mb 0.00 in0.0 mm 0.00 in/hr0.0 mm/hr 0.00 in0.0 mm
12:45 AM 31.8°F-0.1°C 22.1°F-5.5°C 67% 18.0 mph NNW29.0 kmh NNW 23.0 mph37.0 kmh 30.43 in1030.5 mb 0.00 in0.0 mm 0.00 in/hr0.0 mm/hr 0.00 in0.0 mm
12:44 AM 31.9°F-0.1°C 22.2°F-5.4°C 67% 16.0 mph NNW25.7 kmh NNW 23.0 mph37.0 kmh 30.43 in1030.5 mb 0.00 in0.0 mm 0.00 in/hr0.0 mm/hr 0.00 in0.0 mm
12:43 AM 31.9°F-0.1°C 22.2°F-5.4°C 67% 15.0 mph NNW24.1 kmh NNW 23.0 mph37.0 kmh 30.43 in1030.5 mb 0.00 in0.0 mm 0.00 in/hr0.0 mm/hr 0.00 in0.0 mm
12:42 AM 31.9°F-0.1°C 21.9°F-5.6°C 66% 18.0 mph NW29.0 kmh NW 23.0 mph37.0 kmh 30.43 in1030.5 mb 0.00 in0.0 mm 0.00 in/hr0.0 mm/hr 0.00 in0.0 mm
12:41 AM 31.9°F-0.1°C 21.9°F-5.6°C 66% 19.0 mph NW30.6 kmh NW 23.0 mph37.0 kmh 30.43 in1030.5 mb 0.00 in0.0 mm 0.00 in/hr0.0 mm/hr 0.00 in0.0 mm
12:40 AM 32.0°F0.0°C 21.9°F-5.6°C 66% 19.0 mph NNW30.6 kmh NNW 23.0 mph37.0 kmh 30.43 in1030.5 mb 0.00 in0.0 mm 0.00 in/hr0.0 mm/hr 0.00 in0.0 mm
12:39 AM 32.0°F0.0°C 21.9°F-5.6°C 66% 13.0 mph NW20.9 kmh NW 23.0 mph37.0 kmh 30.43 in1030.5 mb 0.00 in0.0 mm 0.00 in/hr0.0 mm/hr 0.00 in0.0 mm
12:38 AM 32.0°F0.0°C 21.9°F-5.6°C 66% 20.0 mph NW32.2 kmh NW 23.0 mph37.0 kmh 30.43 in1030.5 mb 0.00 in0.0 mm 0.00 in/hr0.0 mm/hr 0.00 in0.0 mm
12:37 AM 32.1°F0.1°C 22.0°F-5.6°C 66% 19.0 mph NW30.6 kmh NW 23.0 mph37.0 kmh 30.43 in1030.5 mb 0.00 in0.0 mm 0.00 in/hr0.0 mm/hr 0.00 in0.0 mm
12:36 AM 32.1°F0.1°C 22.0°F-5.6°C 66% 16.0 mph NW25.7 kmh NW 23.0 mph37.0 kmh 30.43 in1030.5 mb 0.00 in0.0 mm 0.00 in/hr0.0 mm/hr 0.00 in0.0 mm
12:35 AM 32.1°F0.1°C 22.0°F-5.6°C 66% 21.0 mph NW33.8 kmh NW 23.0 mph37.0 kmh 30.43 in1030.5 mb 0.00 in0.0 mm 0.00 in/hr0.0 mm/hr 0.00 in0.0 mm
12:34 AM 32.1°F0.1°C 22.0°F-5.6°C 66% 16.0 mph NNW25.7 kmh NNW 21.0 mph33.8 kmh 30.43 in1030.5 mb 0.00 in0.0 mm 0.00 in/hr0.0 mm/hr 0.00 in0.0 mm
12:33 AM 32.2°F0.1°C 22.1°F-5.5°C 66% 16.0 mph NW25.7 kmh NW 21.0 mph33.8 kmh 30.43 in1030.5 mb 0.00 in0.0 mm 0.00 in/hr0.0 mm/hr 0.00 in0.0 mm
12:32 AM 32.2°F0.1°C 22.1°F-5.5°C 66% 20.0 mph NNW32.2 kmh NNW 21.0 mph33.8 kmh 30.43 in1030.5 mb 0.00 in0.0 mm 0.00 in/hr0.0 mm/hr 0.00 in0.0 mm
12:31 AM 32.2°F0.1°C 21.8°F-5.7°C 65% 15.0 mph NNW24.1 kmh NNW 25.0 mph40.2 kmh 30.43 in1030.5 mb 0.00 in0.0 mm 0.00 in/hr0.0 mm/hr 0.00 in0.0 mm
12:30 AM 32.3°F0.2°C 21.9°F-5.6°C 65% 14.0 mph NNW22.5 kmh NNW 25.0 mph40.2 kmh 30.43 in1030.5 mb 0.00 in0.0 mm 0.00 in/hr0.0 mm/hr 0.00 in0.0 mm
12:29 AM 32.3°F0.2°C 21.9°F-5.6°C 65% 16.0 mph NW25.7 kmh NW 25.0 mph40.2 kmh 30.43 in1030.5 mb 0.00 in0.0 mm 0.00 in/hr0.0 mm/hr 0.00 in0.0 mm
12:28 AM 32.3°F0.2°C 21.9°F-5.6°C 65% 17.0 mph NW27.4 kmh NW 25.0 mph40.2 kmh 30.43 in1030.5 mb 0.00 in0.0 mm 0.00 in/hr0.0 mm/hr 0.00 in0.0 mm
12:27 AM 32.3°F0.2°C 21.9°F-5.6°C 65% 18.0 mph N29.0 kmh N 25.0 mph40.2 kmh 30.43 in1030.5 mb 0.00 in0.0 mm 0.00 in/hr0.0 mm/hr 0.00 in0.0 mm
12:26 AM 32.4°F0.2°C 22.0°F-5.6°C 65% 17.0 mph NNW27.4 kmh NNW 25.0 mph40.2 kmh 30.43 in1030.5 mb 0.00 in0.0 mm 0.00 in/hr0.0 mm/hr 0.00 in0.0 mm
12:25 AM 32.4°F0.2°C 22.0°F-5.6°C 65% 14.0 mph NNW22.5 kmh NNW 25.0 mph40.2 kmh 30.43 in1030.5 mb 0.00 in0.0 mm 0.00 in/hr0.0 mm/hr 0.00 in0.0 mm
12:24 AM 32.5°F0.3°C 22.1°F-5.5°C 65% 12.0 mph NW19.3 kmh NW 25.0 mph40.2 kmh 30.43 in1030.5 mb 0.00 in0.0 mm 0.00 in/hr0.0 mm/hr 0.00 in0.0 mm
12:23 AM 32.5°F0.3°C 22.1°F-5.5°C 65% 16.0 mph NNW25.7 kmh NNW 25.0 mph40.2 kmh 30.43 in1030.5 mb 0.00 in0.0 mm 0.00 in/hr0.0 mm/hr 0.00 in0.0 mm
12:22 AM 32.5°F0.3°C 22.1°F-5.5°C 65% 18.0 mph NNW29.0 kmh NNW 25.0 mph40.2 kmh 30.43 in1030.5 mb 0.00 in0.0 mm 0.00 in/hr0.0 mm/hr 0.00 in0.0 mm
12:21 AM 32.5°F0.3°C 22.1°F-5.5°C 65% 15.0 mph N24.1 kmh N 25.0 mph40.2 kmh 30.43 in1030.5 mb 0.00 in0.0 mm 0.00 in/hr0.0 mm/hr 0.00 in0.0 mm
12:20 AM 32.6°F0.3°C 22.2°F-5.4°C 65% 16.0 mph NW25.7 kmh NW 25.0 mph40.2 kmh 30.43 in1030.5 mb 0.00 in0.0 mm 0.00 in/hr0.0 mm/hr 0.00 in0.0 mm
12:19 AM 32.6°F0.3°C 22.2°F-5.4°C 65% 18.0 mph NNW29.0 kmh NNW 25.0 mph40.2 kmh 30.43 in1030.5 mb 0.00 in0.0 mm 0.00 in/hr0.0 mm/hr 0.00 in0.0 mm
12:18 AM 32.6°F0.3°C 22.2°F-5.4°C 65% 19.0 mph NNW30.6 kmh NNW 25.0 mph40.2 kmh 30.43 in1030.5 mb 0.00 in0.0 mm 0.00 in/hr0.0 mm/hr 0.00 in0.0 mm
12:17 AM 32.6°F0.3°C 22.2°F-5.4°C 65% 16.0 mph NNW25.7 kmh NNW 25.0 mph40.2 kmh 30.42 in1030.1 mb 0.00 in0.0 mm 0.00 in/hr0.0 mm/hr 0.00 in0.0 mm
12:16 AM 32.6°F0.3°C 22.2°F-5.4°C 65% 23.0 mph NW37.0 kmh NW 25.0 mph40.2 kmh 30.42 in1030.1 mb 0.00 in0.0 mm 0.00 in/hr0.0 mm/hr 0.00 in0.0 mm
12:15 AM 32.7°F0.4°C 22.3°F-5.4°C 65% 20.0 mph NW32.2 kmh NW 25.0 mph40.2 kmh 30.42 in1030.1 mb 0.00 in0.0 mm 0.00 in/hr0.0 mm/hr 0.00 in0.0 mm
12:14 AM 32.7°F0.4°C 22.3°F-5.4°C 65% 16.0 mph NNW25.7 kmh NNW 25.0 mph40.2 kmh 30.42 in1030.1 mb 0.00 in0.0 mm 0.00 in/hr0.0 mm/hr 0.00 in0.0 mm
12:13 AM 32.8°F0.4°C 22.3°F-5.4°C 65% 17.0 mph NNW27.4 kmh NNW 25.0 mph40.2 kmh 30.42 in1030.1 mb 0.00 in0.0 mm 0.00 in/hr0.0 mm/hr 0.00 in0.0 mm
12:12 AM 32.8°F0.4°C 22.3°F-5.4°C 65% 22.0 mph NNW35.4 kmh NNW 25.0 mph40.2 kmh 30.42 in1030.1 mb 0.00 in0.0 mm 0.00 in/hr0.0 mm/hr 0.00 in0.0 mm
12:11 AM 32.7°F0.4°C 22.3°F-5.4°C 65% 20.0 mph NW32.2 kmh NW 25.0 mph40.2 kmh 30.42 in1030.1 mb 0.00 in0.0 mm 0.00 in/hr0.0 mm/hr 0.00 in0.0 mm
12:10 AM 32.8°F0.4°C 22.3°F-5.4°C 65% 19.0 mph NNW30.6 kmh NNW 25.0 mph40.2 kmh 30.42 in1030.1 mb 0.00 in0.0 mm 0.00 in/hr0.0 mm/hr 0.00 in0.0 mm
12:09 AM 32.8°F0.4°C 22.3°F-5.4°C 65% 17.0 mph NNW27.4 kmh NNW 25.0 mph40.2 kmh 30.42 in1030.1 mb 0.00 in0.0 mm 0.00 in/hr0.0 mm/hr 0.00 in0.0 mm
12:08 AM 32.8°F0.4°C 22.3°F-5.4°C 65% 18.0 mph NNW29.0 kmh NNW 25.0 mph40.2 kmh 30.42 in1030.1 mb 0.00 in0.0 mm 0.00 in/hr0.0 mm/hr 0.00 in0.0 mm
12:07 AM 32.8°F0.4°C 22.3°F-5.4°C 65% 20.0 mph NNW32.2 kmh NNW 25.0 mph40.2 kmh 30.42 in1030.1 mb 0.00 in0.0 mm 0.00 in/hr0.0 mm/hr 0.00 in0.0 mm
12:00 AM 33.0°F0.6°C 22.5°F-5.3°C 65% 12.0 mph NNW19.3 kmh NNW 29.0 mph46.7 kmh 30.41 in1029.8 mb 0.00 in0.0 mm 0.00 in/hr0.0 mm/hr 0.00 in0.0 mm